Time;durP1;ratioP1;P1;durP2;ratioP2;P2;SDS_P1;SDS_P2;PMS_P1;PMS_P2;Temp;Humidity;BMP_temperature;BMP_pressure;BME280_temperature;BME280_humidity;BME280_pressure;Samples;Min_cycle;Max_cycle;Signal;HPM_P1;HPM_P2
2023/03/20 00:02:23;;;;;;;;;9.67;9.67;;;;;;;;117632;1180;25071;-60
2023/03/20 00:04:51;;;;;;;;;7.67;7.67;;;;;;;;117627;1180;24847;-61
2023/03/20 00:07:20;;;;;;;;;6.75;6.75;;;;;;;;117913;1180;24787;-60
2023/03/20 00:09:49;;;;;;;;;14.00;8.25;;;;;;;;117828;1180;24849;-60
2023/03/20 00:12:23;;;;;;;;;9.33;7.00;;;;;;;;117502;1185;25634;-60
2023/03/20 00:14:51;;;;;;;;;8.67;8.33;;;;;;;;117833;1181;25371;-61
2023/03/20 00:17:20;;;;;;;;;10.00;7.67;;;;;;;;117603;1180;25123;-59
2023/03/20 00:19:49;;;;;;;;;9.75;7.50;;;;;;;;117615;1182;25246;-66
2023/03/20 00:22:17;;;;;;;;;7.25;6.50;;;;;;;;117880;1180;25708;-67
2023/03/20 00:24:46;;;;;;;;;8.00;8.00;;;;;;;;117481;1191;25172;-67
2023/03/20 00:27:16;;;;;;;;;8.50;5.75;;;;;;;;117800;1179;25401;-65
2023/03/20 00:29:45;;;;;;;;;12.00;10.00;;;;;;;;117530;1192;25072;-60
2023/03/20 00:32:14;;;;;;;;;9.50;8.25;;;;;;;;117875;1180;25325;-61
2023/03/20 00:34:42;;;;;;;;;12.00;9.50;;;;;;;;117906;1180;25397;-59
2023/03/20 00:37:11;;;;;;;;;8.50;8.25;;;;;;;;117531;1192;25330;-60
2023/03/20 00:39:40;;;;;;;;;8.50;7.75;;;;;;;;117843;1180;24940;-60
2023/03/20 00:42:23;;;;;;;;;10.00;8.00;;;;;;;;117862;1181;24680;-61
2023/03/20 00:44:58;;;;;;;;;9.00;8.50;;;;;;;;117878;1179;25600;-60
2023/03/20 00:47:27;;;;;;;;;7.50;7.50;;;;;;;;117501;1193;25753;-59
2023/03/20 00:49:56;;;;;;;;;9.33;8.33;;;;;;;;117769;1187;25303;-60
2023/03/20 00:52:25;;;;;;;;;10.67;9.33;;;;;;;;117440;1181;25609;-60
2023/03/20 00:54:53;;;;;;;;;13.67;9.00;;;;;;;;117451;1180;24758;-59
2023/03/20 00:57:39;;;;;;;;;12.00;9.00;;;;;;;;117432;1193;24780;-60
2023/03/20 01:00:17;;;;;;;;;9.00;9.00;;;;;;;;117489;1183;26694;-60
2023/03/20 01:02:45;;;;;;;;;10.50;10.50;;;;;;;;117877;1186;25388;-60
2023/03/20 01:05:13;;;;;;;;;9.00;6.00;;;;;;;;117826;1179;25498;-60
2023/03/20 01:07:42;;;;;;;;;7.50;7.00;;;;;;;;117905;1190;25086;-60
2023/03/20 01:10:11;;;;;;;;;13.00;9.33;;;;;;;;117940;1179;25195;-60
2023/03/20 01:12:41;;;;;;;;;9.33;6.00;;;;;;;;117904;1180;25015;-60
2023/03/20 01:15:22;;;;;;;;;12.25;7.50;;;;;;;;117938;1179;25752;-60
2023/03/20 01:17:51;;;;;;;;;8.00;6.00;;;;;;;;117857;1177;24686;-60
2023/03/20 01:20:23;;;;;;;;;8.00;8.00;;;;;;;;117861;1191;25066;-60
2023/03/20 01:22:53;;;;;;;;;11.00;7.33;;;;;;;;117894;1191;25056;-60
2023/03/20 01:25:22;;;;;;;;;9.50;7.50;;;;;;;;117905;1178;24764;-60
2023/03/20 01:27:53;;;;;;;;;7.33;7.00;;;;;;;;117846;1191;25079;-61
2023/03/20 01:30:27;;;;;;;;;9.33;7.00;;;;;;;;117835;1179;25437;-60
2023/03/20 01:32:56;;;;;;;;;5.00;5.00;;;;;;;;117915;1191;24915;-60
2023/03/20 01:35:26;;;;;;;;;6.00;6.00;;;;;;;;117895;1190;25458;-59
2023/03/20 01:37:55;;;;;;;;;8.00;7.00;;;;;;;;117928;1177;25136;-59
2023/03/20 01:40:32;;;;;;;;;8.25;7.50;;;;;;;;117912;1191;26094;-59
2023/03/20 01:43:02;;;;;;;;;8.50;5.50;;;;;;;;117905;1179;25438;-60
2023/03/20 01:45:35;;;;;;;;;9.33;7.00;;;;;;;;117921;1183;24787;-60
2023/03/20 01:48:18;;;;;;;;;6.00;6.00;;;;;;;;117816;1179;25598;-60
2023/03/20 01:50:47;;;;;;;;;9.33;8.00;;;;;;;;117791;1180;24825;-59
2023/03/20 01:53:25;;;;;;;;;10.00;7.00;;;;;;;;117851;1190;25414;-59
2023/03/20 01:55:56;;;;;;;;;6.00;6.00;;;;;;;;117919;1177;25453;-59
2023/03/20 01:58:31;;;;;;;;;10.33;8.67;;;;;;;;117907;1177;25280;-60
2023/03/20 02:00:59;;;;;;;;;4.50;4.00;;;;;;;;117935;1180;25336;-59
2023/03/20 02:03:28;;;;;;;;;8.50;7.00;;;;;;;;117914;1191;25299;-59
2023/03/20 02:05:58;;;;;;;;;5.50;5.50;;;;;;;;117894;1179;25181;-60
2023/03/20 02:08:28;;;;;;;;;8.25;8.00;;;;;;;;117948;1177;25389;-59
2023/03/20 02:10:58;;;;;;;;;7.33;6.33;;;;;;;;117901;1190;25065;-60
2023/03/20 02:13:29;;;;;;;;;10.00;6.67;;;;;;;;117893;1188;25415;-61
2023/03/20 02:16:06;;;;;;;;;8.00;8.00;;;;;;;;117932;1179;25229;-59
2023/03/20 02:18:35;;;;;;;;;7.00;7.00;;;;;;;;117889;1183;25198;-59
2023/03/20 02:21:40;;;;;;;;;12.00;9.00;;;;;;;;117915;1177;25639;-60
2023/03/20 02:24:31;;;;;;;;;9.67;7.33;;;;;;;;117833;1190;24977;-61
2023/03/20 02:27:41;;;;;;;;;11.00;7.00;;;;;;;;117813;1180;25532;-60
2023/03/20 02:30:35;;;;;;;;;6.33;6.33;;;;;;;;117857;1190;25636;-60
2023/03/20 02:33:16;;;;;;;;;6.00;6.00;;;;;;;;117923;1185;25542;-61
2023/03/20 02:36:02;;;;;;;;;8.25;6.50;;;;;;;;117951;1190;25300;-60
2023/03/20 02:39:15;;;;;;;;;8.00;6.00;;;;;;;;117912;1178;25103;-61
2023/03/20 02:41:54;;;;;;;;;7.00;7.00;;;;;;;;117430;1195;25433;-59
2023/03/20 02:44:34;;;;;;;;;14.00;9.33;;;;;;;;117428;1184;26467;-60
2023/03/20 02:47:10;;;;;;;;;7.75;6.50;;;;;;;;117693;1177;25452;-60
2023/03/20 02:49:39;;;;;;;;;9.00;7.00;;;;;;;;117783;1190;25665;-60
2023/03/20 02:52:26;;;;;;;;;7.50;6.00;;;;;;;;117947;1177;25161;-61
2023/03/20 02:55:00;;;;;;;;;6.67;4.67;;;;;;;;117913;1178;24770;-61
2023/03/20 02:57:51;;;;;;;;;7.67;7.00;;;;;;;;117883;1178;25244;-61
2023/03/20 03:00:32;;;;;;;;;6.00;6.00;;;;;;;;117842;1177;24762;-62
2023/03/20 03:03:54;;;;;;;;;10.25;6.75;;;;;;;;117841;1181;25455;-61
2023/03/20 03:06:29;;;;;;;;;9.00;7.50;;;;;;;;117434;1180;25304;-61
2023/03/20 03:09:17;;;;;;;;;6.67;6.67;;;;;;;;117835;1178;25296;-60
2023/03/20 03:11:56;;;;;;;;;7.50;7.50;;;;;;;;117852;1181;25092;-61
2023/03/20 03:14:47;;;;;;;;;9.67;8.00;;;;;;;;117785;1183;25487;-60
2023/03/20 03:17:17;;;;;;;;;9.25;8.50;;;;;;;;117825;1177;24944;-61
2023/03/20 03:19:49;;;;;;;;;9.67;7.67;;;;;;;;117828;1177;25581;-60
2023/03/20 03:22:18;;;;;;;;;8.33;7.33;;;;;;;;117840;1179;24906;-61
2023/03/20 03:24:50;;;;;;;;;6.75;5.75;;;;;;;;117903;1177;25355;-60
2023/03/20 03:27:24;;;;;;;;;6.67;6.00;;;;;;;;117909;1191;24888;-60
2023/03/20 03:29:58;;;;;;;;;6.50;5.50;;;;;;;;117925;1191;25101;-60
2023/03/20 03:32:34;;;;;;;;;3.50;3.50;;;;;;;;117955;1177;25718;-60
2023/03/20 03:35:04;;;;;;;;;7.67;5.00;;;;;;;;117864;1190;25618;-60
2023/03/20 03:38:00;;;;;;;;;9.33;5.33;;;;;;;;117837;1178;26067;-62
2023/03/20 03:40:50;;;;;;;;;3.00;3.00;;;;;;;;117900;1177;25449;-61
2023/03/20 03:43:32;;;;;;;;;6.00;4.50;;;;;;;;117851;1180;25296;-62
2023/03/20 03:46:09;;;;;;;;;8.33;6.00;;;;;;;;117815;1190;25493;-62
2023/03/20 03:48:50;;;;;;;;;6.33;5.00;;;;;;;;117917;1183;25073;-61
2023/03/20 03:51:23;;;;;;;;;7.33;7.00;;;;;;;;117902;1178;25538;-60
2023/03/20 03:53:58;;;;;;;;;6.33;5.00;;;;;;;;117885;1191;25161;-60
2023/03/20 03:56:29;;;;;;;;;7.00;5.50;;;;;;;;117893;1177;25038;-61
2023/03/20 03:59:05;;;;;;;;;5.00;5.00;;;;;;;;117895;1188;25215;-60
2023/03/20 04:01:34;;;;;;;;;7.00;6.67;;;;;;;;117904;1185;24864;-61
2023/03/20 04:04:06;;;;;;;;;8.50;6.00;;;;;;;;117946;1177;24753;-61
2023/03/20 04:06:35;;;;;;;;;6.00;6.00;;;;;;;;117907;1180;26239;-61
2023/03/20 04:09:03;;;;;;;;;7.00;6.33;;;;;;;;117988;1179;26409;-60
2023/03/20 04:11:32;;;;;;;;;6.00;5.67;;;;;;;;117847;1190;25029;-60
2023/03/20 04:14:01;;;;;;;;;5.00;5.00;;;;;;;;117910;1179;25285;-60
2023/03/20 04:16:29;;;;;;;;;8.33;5.33;;;;;;;;117962;1177;25038;-61
2023/03/20 04:18:58;;;;;;;;;7.67;6.67;;;;;;;;117906;1179;26353;-60
2023/03/20 04:21:26;;;;;;;;;9.00;6.33;;;;;;;;117908;1191;25483;-60
2023/03/20 04:23:55;;;;;;;;;6.67;6.33;;;;;;;;117896;1179;24765;-60
2023/03/20 04:26:23;;;;;;;;;6.67;6.00;;;;;;;;117823;1181;25689;-60
2023/03/20 04:28:52;;;;;;;;;8.75;6.25;;;;;;;;117842;1179;24841;-60
2023/03/20 04:31:20;;;;;;;;;3.00;0.00;;;;;;;;117896;1191;25239;-61
2023/03/20 04:33:49;;;;;;;;;9.50;9.50;;;;;;;;117877;1177;25479;-64
2023/03/20 04:36:17;;;;;;;;;9.50;6.50;;;;;;;;117897;1180;25466;-63
2023/03/20 04:38:46;;;;;;;;;12.75;8.00;;;;;;;;117874;1187;24755;-64
2023/03/20 04:41:14;;;;;;;;;8.50;7.25;;;;;;;;117859;1179;26136;-65
2023/03/20 04:43:43;;;;;;;;;8.00;6.00;;;;;;;;117830;1177;25577;-63
2023/03/20 04:46:11;;;;;;;;;10.75;10.00;;;;;;;;117930;1178;25369;-65
2023/03/20 04:48:40;;;;;;;;;10.75;8.00;;;;;;;;117845;1188;25025;-64
2023/03/20 04:51:09;;;;;;;;;14.25;11.25;;;;;;;;117894;1177;24823;-66
2023/03/20 04:53:37;;;;;;;;;11.33;9.33;;;;;;;;117919;1180;25533;-65
2023/03/20 04:56:06;;;;;;;;;13.50;6.50;;;;;;;;117952;1191;25093;-64
2023/03/20 04:58:35;;;;;;;;;11.00;9.00;;;;;;;;117949;1182;24850;-65
2023/03/20 05:01:04;;;;;;;;;13.00;8.33;;;;;;;;117948;1191;25091;-65
2023/03/20 05:03:33;;;;;;;;;12.75;6.50;;;;;;;;117947;1181;25060;-65
2023/03/20 05:06:01;;;;;;;;;10.00;8.50;;;;;;;;117909;1180;25386;-64
2023/03/20 05:08:30;;;;;;;;;7.33;7.33;;;;;;;;117921;1178;25027;-64
2023/03/20 05:10:58;;;;;;;;;10.33;8.00;;;;;;;;117912;1179;25451;-65
2023/03/20 05:13:27;;;;;;;;;9.25;8.75;;;;;;;;117864;1177;24970;-64
2023/03/20 05:15:55;;;;;;;;;7.67;7.33;;;;;;;;117860;1178;25046;-64
2023/03/20 05:18:24;;;;;;;;;12.00;10.00;;;;;;;;117960;1179;24883;-64
2023/03/20 05:20:52;;;;;;;;;10.50;9.00;;;;;;;;117922;1181;24933;-65
2023/03/20 05:23:20;;;;;;;;;5.75;5.00;;;;;;;;117850;1178;25602;-63
2023/03/20 05:25:49;;;;;;;;;12.00;6.67;;;;;;;;117956;1179;24944;-63
2023/03/20 05:28:17;;;;;;;;;8.00;8.00;;;;;;;;117929;1189;24870;-64
2023/03/20 05:30:46;;;;;;;;;7.75;6.75;;;;;;;;117867;1179;25354;-64
2023/03/20 05:33:14;;;;;;;;;9.50;6.00;;;;;;;;117905;1179;25182;-63
2023/03/20 05:35:43;;;;;;;;;8.75;7.25;;;;;;;;117905;1178;25619;-63
2023/03/20 05:38:11;;;;;;;;;4.25;4.00;;;;;;;;117920;1179;25438;-63
2023/03/20 05:40:43;;;;;;;;;8.00;6.50;;;;;;;;117925;1191;24777;-63
2023/03/20 05:43:11;;;;;;;;;7.67;7.00;;;;;;;;117912;1180;25578;-63
2023/03/20 05:45:41;;;;;;;;;9.25;7.00;;;;;;;;117873;1179;25073;-62
2023/03/20 05:48:10;;;;;;;;;9.50;8.00;;;;;;;;117855;1179;24788;-62
2023/03/20 05:50:39;;;;;;;;;6.00;6.00;;;;;;;;117900;1179;24792;-63
2023/03/20 05:53:08;;;;;;;;;8.00;8.00;;;;;;;;117887;1180;25533;-63
2023/03/20 05:55:36;;;;;;;;;5.67;4.67;;;;;;;;117905;1190;25498;-64
2023/03/20 05:58:05;;;;;;;;;9.00;8.33;;;;;;;;117926;1177;24899;-63
2023/03/20 06:00:33;;;;;;;;;11.50;8.25;;;;;;;;117868;1177;24860;-63
2023/03/20 06:03:02;;;;;;;;;9.50;6.00;;;;;;;;117873;1191;25530;-63
2023/03/20 06:05:31;;;;;;;;;8.00;6.00;;;;;;;;117892;1179;25044;-63
2023/03/20 06:08:00;;;;;;;;;10.00;8.33;;;;;;;;117851;1191;25328;-63
2023/03/20 06:10:29;;;;;;;;;16.75;13.25;;;;;;;;117895;1180;24916;-63
2023/03/20 06:12:59;;;;;;;;;11.75;11.75;;;;;;;;117903;1180;25067;-61
2023/03/20 06:15:28;;;;;;;;;16.00;11.50;;;;;;;;117949;1190;25416;-62
2023/03/20 06:17:57;;;;;;;;;7.50;7.50;;;;;;;;117825;1177;25172;-63
2023/03/20 06:20:26;;;;;;;;;12.67;12.33;;;;;;;;117938;1190;25589;-64
2023/03/20 06:22:54;;;;;;;;;12.00;9.00;;;;;;;;117939;1190;25675;-63
2023/03/20 06:25:23;;;;;;;;;15.75;13.75;;;;;;;;117923;1179;25498;-63
2023/03/20 06:27:51;;;;;;;;;30.00;25.00;;;;;;;;117903;1186;25052;-62
2023/03/20 06:30:20;;;;;;;;;26.33;22.00;;;;;;;;117927;1191;25610;-62
2023/03/20 06:32:48;;;;;;;;;30.00;28.00;;;;;;;;117965;1177;24804;-62
2023/03/20 06:35:17;;;;;;;;;32.50;25.00;;;;;;;;117948;1181;25237;-63
2023/03/20 06:37:46;;;;;;;;;28.67;24.67;;;;;;;;117954;1177;24986;-69
2023/03/20 06:40:14;;;;;;;;;26.33;22.33;;;;;;;;117940;1177;24699;-64
2023/03/20 06:42:43;;;;;;;;;26.67;22.67;;;;;;;;117932;1179;25405;-63
2023/03/20 06:45:12;;;;;;;;;26.00;22.33;;;;;;;;117871;1181;25222;-67
2023/03/20 06:47:40;;;;;;;;;26.00;21.33;;;;;;;;117862;1190;25646;-64
2023/03/20 06:50:09;;;;;;;;;27.33;24.00;;;;;;;;117852;1190;25510;-62
2023/03/20 06:52:38;;;;;;;;;26.33;22.00;;;;;;;;117909;1190;24781;-64
2023/03/20 06:55:07;;;;;;;;;23.33;20.00;;;;;;;;117951;1180;24721;-63
2023/03/20 06:57:36;;;;;;;;;23.33;21.00;;;;;;;;117927;1179;25523;-63
2023/03/20 07:00:06;;;;;;;;;22.33;18.00;;;;;;;;117966;1186;25524;-64
2023/03/20 07:02:35;;;;;;;;;19.33;18.67;;;;;;;;117905;1177;25356;-65
2023/03/20 07:05:04;;;;;;;;;23.00;18.67;;;;;;;;117922;1177;25078;-64
2023/03/20 07:07:32;;;;;;;;;28.33;19.67;;;;;;;;117909;1177;24955;-64
2023/03/20 07:10:01;;;;;;;;;23.00;16.50;;;;;;;;117956;1180;25139;-63
2023/03/20 07:12:29;;;;;;;;;24.00;21.00;;;;;;;;117925;1186;25576;-64
2023/03/20 07:14:58;;;;;;;;;25.33;20.33;;;;;;;;117937;1177;25353;-64
2023/03/20 07:17:26;;;;;;;;;18.50;18.00;;;;;;;;117966;1190;25677;-66
2023/03/20 07:19:55;;;;;;;;;32.00;20.00;;;;;;;;117933;1177;25392;-62
2023/03/20 07:22:25;;;;;;;;;22.00;19.50;;;;;;;;117946;1177;26860;-62
2023/03/20 07:24:54;;;;;;;;;27.50;22.50;;;;;;;;117966;1183;25226;-62
2023/03/20 07:27:22;;;;;;;;;30.67;23.00;;;;;;;;117896;1190;24961;-62
2023/03/20 07:29:51;;;;;;;;;27.67;23.67;;;;;;;;117975;1177;24784;-62
2023/03/20 07:32:19;;;;;;;;;19.25;19.25;;;;;;;;117915;1190;25096;-62
2023/03/20 07:34:49;;;;;;;;;24.50;23.00;;;;;;;;117916;1179;24844;-63
2023/03/20 07:37:17;;;;;;;;;28.00;21.00;;;;;;;;117888;1179;24958;-63
2023/03/20 07:39:46;;;;;;;;;24.67;19.67;;;;;;;;117959;1177;25450;-63
2023/03/20 07:42:15;;;;;;;;;24.33;19.67;;;;;;;;117969;1179;25331;-65
2023/03/20 07:44:43;;;;;;;;;20.00;19.25;;;;;;;;117944;1191;24728;-65
2023/03/20 07:47:12;;;;;;;;;23.25;15.75;;;;;;;;117859;1177;25314;-66
2023/03/20 07:49:40;;;;;;;;;21.67;15.33;;;;;;;;117922;1177;25305;-65
2023/03/20 07:52:08;;;;;;;;;21.25;17.00;;;;;;;;117932;1186;25687;-66
2023/03/20 07:54:37;;;;;;;;;22.50;20.00;;;;;;;;117955;1179;25216;-65
2023/03/20 07:57:05;;;;;;;;;18.00;16.00;;;;;;;;117937;1191;25187;-65
2023/03/20 07:59:34;;;;;;;;;21.75;17.50;;;;;;;;117944;1178;25242;-64
2023/03/20 08:02:02;;;;;;;;;19.00;17.75;;;;;;;;117898;1191;25445;-65
2023/03/20 08:04:31;;;;;;;;;20.25;15.75;;;;;;;;119927;1191;25505;-63
2023/03/20 08:07:00;;;;;;;;;17.75;16.00;;;;;;;;119907;1191;26127;-63
2023/03/20 08:09:28;;;;;;;;;22.00;18.00;;;;;;;;120001;1187;25520;-62
2023/03/20 08:11:56;;;;;;;;;23.33;17.67;;;;;;;;120098;1190;24872;-63
2023/03/20 08:14:24;;;;;;;;;19.00;14.50;;;;;;;;120116;1190;25192;-64
2023/03/20 08:16:52;;;;;;;;;13.75;8.75;;;;;;;;120107;1190;25459;-62
2023/03/20 08:19:41;;;;;;;;;15.25;14.50;;;;;;;;120095;1190;24735;-61
2023/03/20 08:22:09;;;;;;;;;19.33;18.00;;;;;;;;120071;1182;24873;-63
2023/03/20 08:24:37;;;;;;;;;19.00;15.25;;;;;;;;120107;1182;25876;-62
2023/03/20 08:27:06;;;;;;;;;20.00;17.33;;;;;;;;120067;1190;24903;-61
2023/03/20 08:29:34;;;;;;;;;16.50;16.00;;;;;;;;119923;1182;25099;-62
2023/03/20 08:32:03;;;;;;;;;14.25;12.00;;;;;;;;120087;1183;25175;-61
2023/03/20 08:34:32;;;;;;;;;20.33;17.33;;;;;;;;120084;1181;25498;-61
2023/03/20 08:37:03;;;;;;;;;22.50;19.00;;;;;;;;119903;1187;25433;-61
2023/03/20 08:39:32;;;;;;;;;19.00;14.75;;;;;;;;119888;1190;25286;-61
2023/03/20 08:42:00;;;;;;;;;13.00;13.00;;;;;;;;119944;1183;25083;-61
2023/03/20 08:44:28;;;;;;;;;21.00;15.00;;;;;;;;119920;1190;25470;-62
2023/03/20 08:46:57;;;;;;;;;21.75;19.00;;;;;;;;120106;1182;25246;-62
2023/03/20 08:49:26;;;;;;;;;20.33;17.33;;;;;;;;120185;1185;24861;-62
2023/03/20 08:51:55;;;;;;;;;12.00;8.00;;;;;;;;119931;1190;25277;-61
2023/03/20 08:54:23;;;;;;;;;13.50;11.00;;;;;;;;120113;1182;25423;-68
2023/03/20 08:56:51;;;;;;;;;16.00;14.75;;;;;;;;120120;1182;25578;-60
2023/03/20 08:59:20;;;;;;;;;14.00;12.00;;;;;;;;120074;1187;25571;-60
2023/03/20 09:01:48;;;;;;;;;15.33;13.33;;;;;;;;120074;1186;24855;-61
2023/03/20 09:04:17;;;;;;;;;16.00;13.33;;;;;;;;120017;1182;24956;-60
2023/03/20 09:06:45;;;;;;;;;14.00;12.67;;;;;;;;119963;1187;25513;-60
2023/03/20 09:09:15;;;;;;;;;20.33;16.33;;;;;;;;120057;1186;25063;-60
2023/03/20 09:11:43;;;;;;;;;19.25;16.00;;;;;;;;119944;1183;24711;-60
2023/03/20 09:14:11;;;;;;;;;12.00;11.00;;;;;;;;119893;1183;25007;-60
2023/03/20 09:16:40;;;;;;;;;14.00;10.75;;;;;;;;119992;1190;25108;-60
2023/03/20 09:19:08;;;;;;;;;17.33;14.67;;;;;;;;120055;1183;24886;-60
2023/03/20 09:21:36;;;;;;;;;18.67;14.67;;;;;;;;120105;1181;25338;-60
2023/03/20 09:24:05;;;;;;;;;16.50;14.00;;;;;;;;119981;1190;25397;-60
2023/03/20 09:26:33;;;;;;;;;15.00;12.00;;;;;;;;119902;1182;25081;-60
2023/03/20 09:29:01;;;;;;;;;11.25;11.25;;;;;;;;119912;1191;25447;-60
2023/03/20 09:31:29;;;;;;;;;16.00;14.50;;;;;;;;119921;1190;25189;-61
2023/03/20 09:33:57;;;;;;;;;15.50;13.00;;;;;;;;119888;1191;25091;-60
2023/03/20 09:36:26;;;;;;;;;14.00;12.33;;;;;;;;119890;1191;25509;-60
2023/03/20 09:38:54;;;;;;;;;12.25;12.00;;;;;;;;119919;1182;25073;-60
2023/03/20 09:41:25;;;;;;;;;14.33;12.67;;;;;;;;119911;1182;24879;-61
2023/03/20 09:44:04;;;;;;;;;5.00;4.00;;;;;;;;119731;1191;25323;-61
2023/03/20 09:46:37;;;;;;;;;13.00;12.00;;;;;;;;119932;1183;25502;-61
2023/03/20 09:49:25;;;;;;;;;11.00;10.50;;;;;;;;119897;1191;25142;-61
2023/03/20 09:51:56;;;;;;;;;17.33;15.67;;;;;;;;119900;1191;24823;-61
2023/03/20 09:54:32;;;;;;;;;13.33;12.33;;;;;;;;119905;1183;25153;-61
2023/03/20 09:57:28;;;;;;;;;16.75;14.00;;;;;;;;119909;1191;24816;-60
2023/03/20 10:00:28;;;;;;;;;15.00;12.33;;;;;;;;119888;1183;24707;-60
2023/03/20 10:03:16;;;;;;;;;18.33;10.33;;;;;;;;119704;1191;25312;-62
2023/03/20 10:06:03;;;;;;;;;17.33;13.00;;;;;;;;119929;1191;25180;-60
2023/03/20 10:08:35;;;;;;;;;12.00;11.33;;;;;;;;119887;1191;25028;-61
2023/03/20 10:11:15;;;;;;;;;14.50;13.00;;;;;;;;119917;1183;25645;-61
2023/03/20 10:13:58;;;;;;;;;15.75;14.50;;;;;;;;119904;1190;25614;-60
2023/03/20 10:17:10;;;;;;;;;14.00;13.67;;;;;;;;119903;1191;25020;-61
2023/03/20 10:20:12;;;;;;;;;14.00;12.00;;;;;;;;119906;1190;25417;-60
2023/03/20 10:22:46;;;;;;;;;10.75;10.75;;;;;;;;119836;1183;25067;-61
2023/03/20 10:25:27;;;;;;;;;16.25;13.50;;;;;;;;119765;1183;25224;-61
2023/03/20 10:28:03;;;;;;;;;17.00;13.33;;;;;;;;119905;1183;25506;-60
2023/03/20 10:30:38;;;;;;;;;12.25;11.75;;;;;;;;119920;1191;25215;-60
2023/03/20 10:33:25;;;;;;;;;14.00;12.00;;;;;;;;119905;1191;24763;-60
2023/03/20 10:36:17;;;;;;;;;18.25;13.75;;;;;;;;119909;1191;24767;-61
2023/03/20 10:39:05;;;;;;;;;13.00;12.00;;;;;;;;119921;1191;25516;-60
2023/03/20 10:41:38;;;;;;;;;12.67;12.33;;;;;;;;119927;1190;25351;-60
2023/03/20 10:44:15;;;;;;;;;11.75;10.50;;;;;;;;119914;1190;25191;-61
2023/03/20 10:46:47;;;;;;;;;16.00;14.25;;;;;;;;119929;1183;24919;-60
2023/03/20 10:49:32;;;;;;;;;10.33;10.00;;;;;;;;119878;1191;24875;-60
2023/03/20 10:52:04;;;;;;;;;17.25;13.25;;;;;;;;119970;1182;25404;-61
2023/03/20 10:54:40;;;;;;;;;17.50;14.00;;;;;;;;119851;1181;25028;-61
2023/03/20 10:57:17;;;;;;;;;16.00;13.33;;;;;;;;119924;1184;25091;-61
2023/03/20 10:59:54;;;;;;;;;11.50;8.75;;;;;;;;119927;1183;25447;-62
2023/03/20 11:02:27;;;;;;;;;15.75;12.75;;;;;;;;119944;1183;25398;-62
2023/03/20 11:04:57;;;;;;;;;13.67;9.33;;;;;;;;120013;1182;25595;-62
2023/03/20 11:07:31;;;;;;;;;12.00;12.00;;;;;;;;119716;1191;25150;-62
2023/03/20 11:10:07;;;;;;;;;16.25;12.00;;;;;;;;119908;1187;25301;-62
2023/03/20 11:12:47;;;;;;;;;16.75;12.50;;;;;;;;119935;1182;25133;-62
2023/03/20 11:15:31;;;;;;;;;17.33;13.33;;;;;;;;119712;1191;25448;-62
2023/03/20 11:18:14;;;;;;;;;18.75;17.00;;;;;;;;119896;1191;25050;-62
2023/03/20 11:20:50;;;;;;;;;21.00;17.00;;;;;;;;119899;1184;25236;-62
2023/03/20 11:23:23;;;;;;;;;20.00;16.75;;;;;;;;119885;1191;25185;-62
2023/03/20 11:26:01;;;;;;;;;22.33;20.33;;;;;;;;119736;1183;25352;-62
2023/03/20 11:28:46;;;;;;;;;15.00;13.75;;;;;;;;119718;1191;25078;-62
2023/03/20 11:31:24;;;;;;;;;19.25;17.75;;;;;;;;119896;1191;25642;-62
2023/03/20 11:34:06;;;;;;;;;21.67;18.33;;;;;;;;119871;1191;25110;-61
2023/03/20 11:36:38;;;;;;;;;19.00;16.00;;;;;;;;119917;1191;25225;-62
2023/03/20 11:39:13;;;;;;;;;20.67;17.00;;;;;;;;119921;1191;25590;-63
2023/03/20 11:41:50;;;;;;;;;17.00;17.00;;;;;;;;119898;1182;25250;-63
2023/03/20 11:44:28;;;;;;;;;20.25;18.00;;;;;;;;119869;1191;25223;-63
2023/03/20 11:47:04;;;;;;;;;13.50;12.50;;;;;;;;119911;1191;25266;-64
2023/03/20 11:49:46;;;;;;;;;18.00;16.00;;;;;;;;119897;1183;24781;-63
2023/03/20 11:52:20;;;;;;;;;16.33;12.33;;;;;;;;119741;1184;25076;-63
2023/03/20 11:54:51;;;;;;;;;14.25;13.00;;;;;;;;119906;1191;25402;-62
2023/03/20 11:57:36;;;;;;;;;22.75;18.25;;;;;;;;119899;1191;25325;-63
2023/03/20 12:00:10;;;;;;;;;17.67;15.00;;;;;;;;119903;1191;24746;-63
2023/03/20 12:02:42;;;;;;;;;15.00;14.00;;;;;;;;119931;1182;24740;-63
2023/03/20 12:05:36;;;;;;;;;17.00;14.00;;;;;;;;119897;1191;25455;-63
2023/03/20 12:08:10;;;;;;;;;18.00;13.75;;;;;;;;119887;1191;25569;-64
2023/03/20 12:10:42;;;;;;;;;18.50;16.00;;;;;;;;119929;1191;25092;-63
2023/03/20 12:13:11;;;;;;;;;13.50;13.50;;;;;;;;119684;1181;25623;-63
2023/03/20 12:15:43;;;;;;;;;19.75;16.50;;;;;;;;119926;1191;25800;-63
2023/03/20 12:18:14;;;;;;;;;17.00;15.67;;;;;;;;119908;1191;25019;-63
2023/03/20 12:21:00;;;;;;;;;14.25;13.50;;;;;;;;119924;1183;25328;-63
2023/03/20 12:23:31;;;;;;;;;17.33;15.67;;;;;;;;119920;1191;25282;-63
2023/03/20 12:26:06;;;;;;;;;11.50;11.00;;;;;;;;119914;1191;24743;-63
2023/03/20 12:28:38;;;;;;;;;14.75;14.00;;;;;;;;119882;1191;25338;-62
2023/03/20 12:31:31;;;;;;;;;14.33;12.00;;;;;;;;119905;1182;25650;-63
2023/03/20 12:34:22;;;;;;;;;17.33;14.33;;;;;;;;119905;1191;25404;-62
2023/03/20 12:36:56;;;;;;;;;16.00;15.00;;;;;;;;119906;1191;25741;-62
2023/03/20 12:39:28;;;;;;;;;17.33;17.33;;;;;;;;119732;1191;24755;-62
2023/03/20 12:42:03;;;;;;;;;13.75;12.75;;;;;;;;119919;1191;24787;-62
2023/03/20 12:44:38;;;;;;;;;10.75;9.75;;;;;;;;119918;1191;25139;-63
2023/03/20 12:47:26;;;;;;;;;11.00;10.67;;;;;;;;119942;1182;25218;-63
2023/03/20 12:50:13;;;;;;;;;13.67;11.67;;;;;;;;119899;1191;24773;-63
2023/03/20 12:52:51;;;;;;;;;9.25;9.25;;;;;;;;119921;1183;25292;-62
2023/03/20 12:55:37;;;;;;;;;9.67;9.00;;;;;;;;119903;1191;25172;-62
2023/03/20 12:58:18;;;;;;;;;12.50;10.50;;;;;;;;119904;1191;25388;-62
2023/03/20 13:00:48;;;;;;;;;13.00;11.50;;;;;;;;119905;1191;25186;-63
2023/03/20 13:03:37;;;;;;;;;5.50;5.00;;;;;;;;119906;1182;25678;-62
2023/03/20 13:06:14;;;;;;;;;13.50;11.75;;;;;;;;119936;1191;24888;-62
2023/03/20 13:09:08;;;;;;;;;10.67;9.67;;;;;;;;119894;1191;24848;-62
2023/03/20 13:11:49;;;;;;;;;10.50;9.50;;;;;;;;119920;1191;24968;-62
2023/03/20 13:14:27;;;;;;;;;13.25;11.75;;;;;;;;119915;1182;24854;-62
2023/03/20 13:17:22;;;;;;;;;15.67;10.67;;;;;;;;119895;1183;25152;-64
2023/03/20 13:19:59;;;;;;;;;10.00;8.00;;;;;;;;119893;1191;25423;-63
2023/03/20 13:22:51;;;;;;;;;11.67;8.33;;;;;;;;119915;1187;25647;-63
2023/03/20 13:25:48;;;;;;;;;12.75;11.00;;;;;;;;119928;1190;25283;-64
2023/03/20 13:28:25;;;;;;;;;10.75;8.00;;;;;;;;119922;1183;25364;-64
2023/03/20 13:31:12;;;;;;;;;10.25;10.25;;;;;;;;119901;1191;24953;-64
2023/03/20 13:34:30;;;;;;;;;11.50;9.75;;;;;;;;119870;1182;24795;-63
2023/03/20 13:37:09;;;;;;;;;10.75;8.25;;;;;;;;119901;1191;24996;-63
2023/03/20 13:40:21;;;;;;;;;10.50;8.25;;;;;;;;119874;1191;25575;-64
2023/03/20 13:42:56;;;;;;;;;12.00;10.33;;;;;;;;119934;1191;25494;-63
2023/03/20 13:45:35;;;;;;;;;12.00;11.00;;;;;;;;119941;1191;25186;-64
2023/03/20 13:48:23;;;;;;;;;9.25;9.25;;;;;;;;119891;1183;24752;-63
2023/03/20 13:51:27;;;;;;;;;13.50;11.50;;;;;;;;119903;1191;25823;-63
2023/03/20 13:54:10;;;;;;;;;10.25;9.75;;;;;;;;119906;1191;24942;-64
2023/03/20 13:57:05;;;;;;;;;15.00;12.50;;;;;;;;119941;1182;25528;-63
2023/03/20 13:59:46;;;;;;;;;13.50;10.50;;;;;;;;119906;1191;24685;-63
2023/03/20 14:02:21;;;;;;;;;12.33;12.00;;;;;;;;119900;1191;25075;-64
2023/03/20 14:05:00;;;;;;;;;14.00;11.00;;;;;;;;119925;1191;25332;-64
2023/03/20 14:07:29;;;;;;;;;13.33;10.67;;;;;;;;119929;1191;25011;-63
2023/03/20 14:10:20;;;;;;;;;14.67;12.67;;;;;;;;119910;1183;25679;-64
2023/03/20 14:12:53;;;;;;;;;12.33;11.33;;;;;;;;119909;1191;24735;-64
2023/03/20 14:15:25;;;;;;;;;11.75;11.25;;;;;;;;119886;1191;26150;-64
2023/03/20 14:17:54;;;;;;;;;8.67;7.00;;;;;;;;119903;1182;24972;-63
2023/03/20 14:20:25;;;;;;;;;11.25;10.00;;;;;;;;119908;1191;25435;-64
2023/03/20 14:22:56;;;;;;;;;15.33;11.00;;;;;;;;119891;1183;25387;-63
2023/03/20 14:25:33;;;;;;;;;10.50;8.00;;;;;;;;119897;1191;24978;-64
2023/03/20 14:28:08;;;;;;;;;12.25;12.00;;;;;;;;119744;1184;25510;-63
2023/03/20 14:30:45;;;;;;;;;12.75;12.00;;;;;;;;119897;1182;25255;-63
2023/03/20 14:33:13;;;;;;;;;10.75;10.25;;;;;;;;119914;1191;25352;-64
2023/03/20 14:36:07;;;;;;;;;11.25;11.00;;;;;;;;119938;1182;25633;-63
2023/03/20 14:38:48;;;;;;;;;16.00;10.75;;;;;;;;119905;1191;25136;-62
2023/03/20 14:41:29;;;;;;;;;10.00;10.00;;;;;;;;119907;1191;25425;-63
2023/03/20 14:44:19;;;;;;;;;14.67;10.00;;;;;;;;119886;1191;24824;-63
2023/03/20 14:46:55;;;;;;;;;13.50;13.25;;;;;;;;119895;1191;25459;-63
2023/03/20 14:49:55;;;;;;;;;13.00;10.25;;;;;;;;119914;1188;25421;-63
2023/03/20 14:52:32;;;;;;;;;11.25;11.00;;;;;;;;119921;1191;25564;-63
2023/03/20 14:55:18;;;;;;;;;14.33;14.33;;;;;;;;119902;1191;24705;-63
2023/03/20 14:57:47;;;;;;;;;11.75;10.50;;;;;;;;119923;1191;25420;-63